sensor_id;sensor_type;location;lat;lon;timestamp;pressure;altitude;pressure_sealevel;temperature;humidity
15794;BME280;7999;51.208;4.244;2022-12-11T00:02:03;101114.31;;;0.17;100.00
15794;BME280;7999;51.208;4.244;2022-12-11T00:04:30;101110.34;;;0.23;100.00
15794;BME280;7999;51.208;4.244;2022-12-11T00:06:57;101114.22;;;0.15;100.00
15794;BME280;7999;51.208;4.244;2022-12-11T00:09:24;101113.28;;;0.13;100.00
15794;BME280;7999;51.208;4.244;2022-12-11T00:11:50;101104.41;;;0.05;100.00
15794;BME280;7999;51.208;4.244;2022-12-11T00:14:17;101100.91;;;0.03;100.00
15794;BME280;7999;51.208;4.244;2022-12-11T00:16:46;101108.50;;;0.02;100.00
15794;BME280;7999;51.208;4.244;2022-12-11T00:19:14;101098.56;;;0.08;100.00
15794;BME280;7999;51.208;4.244;2022-12-11T00:21:41;101102.53;;;0.01;100.00
15794;BME280;7999;51.208;4.244;2022-12-11T00:24:08;101105.34;;;0.07;100.00
15794;BME280;7999;51.208;4.244;2022-12-11T00:26:35;101102.94;;;0.10;100.00
15794;BME280;7999;51.208;4.244;2022-12-11T00:29:04;101106.28;;;0.09;100.00
15794;BME280;7999;51.208;4.244;2022-12-11T00:31:32;101110.19;;;0.20;100.00
15794;BME280;7999;51.208;4.244;2022-12-11T00:33:59;101117.19;;;0.24;100.00
15794;BME280;7999;51.208;4.244;2022-12-11T00:36:28;101122.66;;;0.13;100.00
15794;BME280;7999;51.208;4.244;2022-12-11T00:38:55;101121.31;;;0.21;100.00
15794;BME280;7999;51.208;4.244;2022-12-11T00:41:22;101120.69;;;0.26;100.00
15794;BME280;7999;51.208;4.244;2022-12-11T00:43:49;101122.03;;;0.18;100.00
15794;BME280;7999;51.208;4.244;2022-12-11T00:46:16;101127.59;;;0.27;100.00
15794;BME280;7999;51.208;4.244;2022-12-11T00:48:43;101127.88;;;0.34;100.00
15794;BME280;7999;51.208;4.244;2022-12-11T00:51:10;101128.88;;;0.37;100.00
15794;BME280;7999;51.208;4.244;2022-12-11T00:53:42;101131.16;;;0.31;100.00
15794;BME280;7999;51.208;4.244;2022-12-11T00:56:10;101132.50;;;0.42;100.00
15794;BME280;7999;51.208;4.244;2022-12-11T00:58:37;101129.63;;;0.35;100.00
15794;BME280;7999;51.208;4.244;2022-12-11T01:01:05;101129.81;;;0.39;100.00
15794;BME280;7999;51.208;4.244;2022-12-11T01:03:33;101127.59;;;0.27;100.00
15794;BME280;7999;51.208;4.244;2022-12-11T01:06:00;101132.91;;;0.32;100.00
15794;BME280;7999;51.208;4.244;2022-12-11T01:08:27;101123.69;;;0.36;100.00
15794;BME280;7999;51.208;4.244;2022-12-11T01:11:01;101120.19;;;0.34;100.00
15794;BME280;7999;51.208;4.244;2022-12-11T01:13:27;101115.09;;;0.34;100.00
15794;BME280;7999;51.208;4.244;2022-12-11T01:15:54;101114.53;;;0.41;100.00
15794;BME280;7999;51.208;4.244;2022-12-11T01:18:21;101110.56;;;0.28;100.00
15794;BME280;7999;51.208;4.244;2022-12-11T01:20:48;101114.13;;;0.32;100.00
15794;BME280;7999;51.208;4.244;2022-12-11T01:23:15;101112.25;;;0.27;100.00
15794;BME280;7999;51.208;4.244;2022-12-11T01:25:42;101115.16;;;0.35;100.00
15794;BME280;7999;51.208;4.244;2022-12-11T01:28:10;101109.91;;;0.32;100.00
15794;BME280;7999;51.208;4.244;2022-12-11T01:30:37;101112.41;;;0.30;100.00
15794;BME280;7999;51.208;4.244;2022-12-11T01:33:04;101111.84;;;0.38;100.00
15794;BME280;7999;51.208;4.244;2022-12-11T01:35:32;101111.53;;;0.30;100.00
15794;BME280;7999;51.208;4.244;2022-12-11T01:37:59;101104.41;;;0.24;100.00
15794;BME280;7999;51.208;4.244;2022-12-11T01:40:26;101096.69;;;0.23;100.00
15794;BME280;7999;51.208;4.244;2022-12-11T01:42:52;101106.69;;;0.18;100.00
15794;BME280;7999;51.208;4.244;2022-12-11T01:45:31;101100.59;;;0.15;100.00
15794;BME280;7999;51.208;4.244;2022-12-11T01:48:02;101099.78;;;0.16;100.00
15794;BME280;7999;51.208;4.244;2022-12-11T01:50:31;101099.72;;;0.14;100.00
15794;BME280;7999;51.208;4.244;2022-12-11T01:52:59;101106.44;;;0.12;100.00
15794;BME280;7999;51.208;4.244;2022-12-11T01:55:27;101105.09;;;0.20;100.00
15794;BME280;7999;51.208;4.244;2022-12-11T01:57:54;101111.22;;;0.24;100.00
15794;BME280;7999;51.208;4.244;2022-12-11T02:00:21;101110.91;;;0.36;100.00
15794;BME280;7999;51.208;4.244;2022-12-11T02:02:49;101110.50;;;0.46;100.00
15794;BME280;7999;51.208;4.244;2022-12-11T02:05:17;101113.00;;;0.44;100.00
15794;BME280;7999;51.208;4.244;2022-12-11T02:07:45;101122.16;;;0.39;100.00
15794;BME280;7999;51.208;4.244;2022-12-11T02:10:14;101126.13;;;0.33;100.00
15794;BME280;7999;51.208;4.244;2022-12-11T02:12:44;101126.50;;;0.22;100.00
15794;BME280;7999;51.208;4.244;2022-12-11T02:15:16;101121.22;;;0.19;100.00
15794;BME280;7999;51.208;4.244;2022-12-11T02:17:47;101114.00;;;0.28;100.00
15794;BME280;7999;51.208;4.244;2022-12-11T02:20:20;101107.63;;;0.38;100.00
15794;BME280;7999;51.208;4.244;2022-12-11T02:23:03;101102.16;;;0.30;100.00
15794;BME280;7999;51.208;4.244;2022-12-11T02:25:35;101096.44;;;0.36;100.00
15794;BME280;7999;51.208;4.244;2022-12-11T02:28:12;101103.44;;;0.40;100.00
15794;BME280;7999;51.208;4.244;2022-12-11T02:30:43;101098.47;;;0.43;100.00
15794;BME280;7999;51.208;4.244;2022-12-11T02:33:13;101099.19;;;0.41;100.00
15794;BME280;7999;51.208;4.244;2022-12-11T02:35:41;101092.59;;;0.46;100.00
15794;BME280;7999;51.208;4.244;2022-12-11T02:38:10;101089.78;;;0.40;100.00
15794;BME280;7999;51.208;4.244;2022-12-11T02:40:38;101087.75;;;0.33;100.00
15794;BME280;7999;51.208;4.244;2022-12-11T02:43:07;101076.84;;;0.37;100.00
15794;BME280;7999;51.208;4.244;2022-12-11T02:45:37;101073.09;;;0.28;100.00
15794;BME280;7999;51.208;4.244;2022-12-11T02:48:05;101076.22;;;0.23;100.00
15794;BME280;7999;51.208;4.244;2022-12-11T02:50:34;101070.03;;;0.18;100.00
15794;BME280;7999;51.208;4.244;2022-12-11T02:53:02;101066.50;;;0.34;100.00
15794;BME280;7999;51.208;4.244;2022-12-11T02:55:30;101075.91;;;0.35;100.00
15794;BME280;7999;51.208;4.244;2022-12-11T02:57:59;101063.13;;;0.35;100.00
15794;BME280;7999;51.208;4.244;2022-12-11T03:00:28;101066.50;;;0.34;100.00
15794;BME280;7999;51.208;4.244;2022-12-11T03:02:56;101068.25;;;0.35;100.00
15794;BME280;7999;51.208;4.244;2022-12-11T03:05:23;101072.00;;;0.43;100.00
15794;BME280;7999;51.208;4.244;2022-12-11T03:07:51;101062.16;;;0.52;100.00
15794;BME280;7999;51.208;4.244;2022-12-11T03:10:18;101055.44;;;0.54;100.00
15794;BME280;7999;51.208;4.244;2022-12-11T03:12:47;101047.19;;;0.59;100.00
15794;BME280;7999;51.208;4.244;2022-12-11T03:15:14;101052.09;;;0.55;100.00
15794;BME280;7999;51.208;4.244;2022-12-11T03:17:44;101053.56;;;0.50;100.00
15794;BME280;7999;51.208;4.244;2022-12-11T03:20:16;101052.34;;;0.61;100.00
15794;BME280;7999;51.208;4.244;2022-12-11T03:22:47;101051.13;;;0.72;100.00
15794;BME280;7999;51.208;4.244;2022-12-11T03:25:17;101033.09;;;0.69;100.00
15794;BME280;7999;51.208;4.244;2022-12-11T03:27:46;101032.69;;;0.60;100.00
15794;BME280;7999;51.208;4.244;2022-12-11T03:30:15;101023.53;;;0.65;100.00
15794;BME280;7999;51.208;4.244;2022-12-11T03:32:43;101033.22;;;0.53;100.00
15794;BME280;7999;51.208;4.244;2022-12-11T03:35:16;101035.53;;;0.47;100.00
15794;BME280;7999;51.208;4.244;2022-12-11T03:37:45;101039.97;;;0.51;100.00
15794;BME280;7999;51.208;4.244;2022-12-11T03:40:14;101043.19;;;0.47;100.00
15794;BME280;7999;51.208;4.244;2022-12-11T03:42:42;101042.25;;;0.45;100.00
15794;BME280;7999;51.208;4.244;2022-12-11T03:45:11;101037.28;;;0.48;100.00
15794;BME280;7999;51.208;4.244;2022-12-11T03:47:38;101041.56;;;0.49;100.00
15794;BME280;7999;51.208;4.244;2022-12-11T03:50:07;101044.50;;;0.56;100.00
15794;BME280;7999;51.208;4.244;2022-12-11T03:52:36;101045.06;;;0.51;100.00
15794;BME280;7999;51.208;4.244;2022-12-11T03:55:04;101030.59;;;0.51;100.00
15794;BME280;7999;51.208;4.244;2022-12-11T03:57:33;101034.03;;;0.52;100.00
15794;BME280;7999;51.208;4.244;2022-12-11T04:00:00;101033.38;;;0.56;100.00
15794;BME280;7999;51.208;4.244;2022-12-11T04:02:37;101035.25;;;0.60;100.00
15794;BME280;7999;51.208;4.244;2022-12-11T04:05:04;101031.75;;;0.58;100.00
15794;BME280;7999;51.208;4.244;2022-12-11T04:07:30;101023.53;;;0.65;100.00
15794;BME280;7999;51.208;4.244;2022-12-11T04:09:59;101017.88;;;0.53;100.00
15794;BME280;7999;51.208;4.244;2022-12-11T04:12:25;101024.34;;;0.64;100.00
15794;BME280;7999;51.208;4.244;2022-12-11T04:14:52;101019.34;;;0.67;100.00
15794;BME280;7999;51.208;4.244;2022-12-11T04:17:27;101029.59;;;0.67;100.00
15794;BME280;7999;51.208;4.244;2022-12-11T04:20:11;101024.16;;;0.59;100.00
15794;BME280;7999;51.208;4.244;2022-12-11T04:22:55;101026.91;;;0.64;100.00
15794;BME280;7999;51.208;4.244;2022-12-11T04:25:41;101018.59;;;0.70;100.00
15794;BME280;7999;51.208;4.244;2022-12-11T04:28:07;101018.44;;;0.86;100.00
15794;BME280;7999;51.208;4.244;2022-12-11T04:30:34;101014.78;;;0.60;100.00
15794;BME280;7999;51.208;4.244;2022-12-11T04:33:01;101011.53;;;0.83;100.00
15794;BME280;7999;51.208;4.244;2022-12-11T04:35:28;101008.47;;;0.92;100.00
15794;BME280;7999;51.208;4.244;2022-12-11T04:37:54;101004.34;;;0.96;100.00
15794;BME280;7999;51.208;4.244;2022-12-11T04:40:21;101010.06;;;0.69;100.00
15794;BME280;7999;51.208;4.244;2022-12-11T04:42:49;101014.09;;;0.83;100.00
15794;BME280;7999;51.208;4.244;2022-12-11T04:45:16;101009.88;;;0.65;100.00
15794;BME280;7999;51.208;4.244;2022-12-11T04:47:43;101011.31;;;0.79;100.00
15794;BME280;7999;51.208;4.244;2022-12-11T04:50:11;101006.09;;;0.97;100.00
15794;BME280;7999;51.208;4.244;2022-12-11T04:52:38;101002.22;;;0.85;100.00
15794;BME280;7999;51.208;4.244;2022-12-11T04:55:05;100999.44;;;0.81;100.00
15794;BME280;7999;51.208;4.244;2022-12-11T04:57:33;101010.56;;;0.81;100.00
15794;BME280;7999;51.208;4.244;2022-12-11T05:00:01;101008.75;;;0.79;100.00
15794;BME280;7999;51.208;4.244;2022-12-11T05:02:28;101013.00;;;0.78;100.00
15794;BME280;7999;51.208;4.244;2022-12-11T05:04:55;101012.88;;;0.75;100.00
15794;BME280;7999;51.208;4.244;2022-12-11T05:07:22;101012.19;;;0.79;100.00
15794;BME280;7999;51.208;4.244;2022-12-11T05:09:48;101007.69;;;0.74;100.00
15794;BME280;7999;51.208;4.244;2022-12-11T05:12:15;100997.81;;;0.62;100.00
15794;BME280;7999;51.208;4.244;2022-12-11T05:14:42;101003.81;;;0.63;100.00
15794;BME280;7999;51.208;4.244;2022-12-11T05:17:10;101001.00;;;0.56;100.00
15794;BME280;7999;51.208;4.244;2022-12-11T05:19:36;100995.38;;;0.65;100.00
15794;BME280;7999;51.208;4.244;2022-12-11T05:22:03;100992.47;;;0.56;100.00
15794;BME280;7999;51.208;4.244;2022-12-11T05:24:29;100995.94;;;0.58;100.00
15794;BME280;7999;51.208;4.244;2022-12-11T05:26:56;100995.81;;;0.55;100.00
15794;BME280;7999;51.208;4.244;2022-12-11T05:29:23;100982.88;;;0.52;100.00
15794;BME280;7999;51.208;4.244;2022-12-11T05:31:49;100987.19;;;0.53;100.00
15794;BME280;7999;51.208;4.244;2022-12-11T05:34:17;100984.56;;;0.51;100.00
15794;BME280;7999;51.208;4.244;2022-12-11T05:36:44;100978.44;;;0.48;100.00
15794;BME280;7999;51.208;4.244;2022-12-11T05:39:11;100981.25;;;0.54;100.00
15794;BME280;7999;51.208;4.244;2022-12-11T05:41:38;100975.19;;;0.52;100.00
15794;BME280;7999;51.208;4.244;2022-12-11T05:44:04;100979.56;;;0.54;100.00
15794;BME280;7999;51.208;4.244;2022-12-11T05:46:31;100972.81;;;0.55;100.00
15794;BME280;7999;51.208;4.244;2022-12-11T05:48:59;100970.75;;;0.67;100.00
15794;BME280;7999;51.208;4.244;2022-12-11T05:51:27;100965.06;;;0.74;100.00
15794;BME280;7999;51.208;4.244;2022-12-11T05:53:55;100968.06;;;0.64;100.00
15794;BME280;7999;51.208;4.244;2022-12-11T05:56:23;100971.50;;;0.65;100.00
15794;BME280;7999;51.208;4.244;2022-12-11T05:58:50;100963.38;;;0.75;100.00
15794;BME280;7999;51.208;4.244;2022-12-11T06:01:18;100973.53;;;0.73;100.00
15794;BME280;7999;51.208;4.244;2022-12-11T06:03:47;100967.94;;;0.61;100.00
15794;BME280;7999;51.208;4.244;2022-12-11T06:06:15;100971.44;;;0.63;100.00
15794;BME280;7999;51.208;4.244;2022-12-11T06:08:43;100971.81;;;0.72;100.00
15794;BME280;7999;51.208;4.244;2022-12-11T06:11:10;100968.75;;;0.60;100.00
15794;BME280;7999;51.208;4.244;2022-12-11T06:13:37;100976.28;;;0.57;100.00
15794;BME280;7999;51.208;4.244;2022-12-11T06:16:05;100975.63;;;0.61;100.00
15794;BME280;7999;51.208;4.244;2022-12-11T06:18:34;100969.00;;;0.66;100.00
15794;BME280;7999;51.208;4.244;2022-12-11T06:21:00;100971.91;;;0.75;100.00
15794;BME280;7999;51.208;4.244;2022-12-11T06:23:27;100972.63;;;0.71;100.00
15794;BME280;7999;51.208;4.244;2022-12-11T06:25:55;100971.75;;;0.71;100.00
15794;BME280;7999;51.208;4.244;2022-12-11T06:28:22;100975.00;;;0.67;100.00
15794;BME280;7999;51.208;4.244;2022-12-11T06:30:48;100973.53;;;0.73;100.00
15794;BME280;7999;51.208;4.244;2022-12-11T06:33:15;100972.03;;;0.78;100.00
15794;BME280;7999;51.208;4.244;2022-12-11T06:35:42;100971.22;;;0.79;100.00
15794;BME280;7999;51.208;4.244;2022-12-11T06:38:08;100978.34;;;0.66;100.00
15794;BME280;7999;51.208;4.244;2022-12-11T06:40:35;100982.59;;;0.65;100.00
15794;BME280;7999;51.208;4.244;2022-12-11T06:43:03;100984.34;;;0.66;100.00
15794;BME280;7999;51.208;4.244;2022-12-11T06:45:30;100975.81;;;0.86;100.00
15794;BME280;7999;51.208;4.244;2022-12-11T06:47:56;100979.59;;;0.75;100.00
15794;BME280;7999;51.208;4.244;2022-12-11T06:50:23;100982.66;;;0.67;100.00
15794;BME280;7999;51.208;4.244;2022-12-11T06:52:50;100980.16;;;0.68;100.00
15794;BME280;7999;51.208;4.244;2022-12-11T06:55:16;100975.75;;;0.64;100.00
15794;BME280;7999;51.208;4.244;2022-12-11T06:57:43;100972.25;;;0.62;100.00
15794;BME280;7999;51.208;4.244;2022-12-11T07:00:12;100972.09;;;0.80;100.00
15794;BME280;7999;51.208;4.244;2022-12-11T07:02:39;100978.31;;;0.85;100.00
15794;BME280;7999;51.208;4.244;2022-12-11T07:05:06;100980.13;;;0.87;100.00
15794;BME280;7999;51.208;4.244;2022-12-11T07:07:33;100983.84;;;0.75;100.00
15794;BME280;7999;51.208;4.244;2022-12-11T07:09:59;100975.47;;;0.79;100.00
15794;BME280;7999;51.208;4.244;2022-12-11T07:12:26;100984.59;;;0.72;100.00
15794;BME280;7999;51.208;4.244;2022-12-11T07:14:53;100987.09;;;0.71;100.00
15794;BME280;7999;51.208;4.244;2022-12-11T07:17:20;100991.66;;;0.57;100.00
15794;BME280;7999;51.208;4.244;2022-12-11T07:19:47;100993.31;;;0.56;100.00
15794;BME280;7999;51.208;4.244;2022-12-11T07:22:14;100992.84;;;0.65;100.00
15794;BME280;7999;51.208;4.244;2022-12-11T07:24:43;100992.97;;;0.68;100.00
15794;BME280;7999;51.208;4.244;2022-12-11T07:27:10;100991.03;;;0.63;100.00
15794;BME280;7999;51.208;4.244;2022-12-11T07:29:36;100993.91;;;0.51;100.00
15794;BME280;7999;51.208;4.244;2022-12-11T07:32:03;100994.84;;;0.53;100.00
15794;BME280;7999;51.208;4.244;2022-12-11T07:34:31;100998.78;;;0.45;100.00
15794;BME280;7999;51.208;4.244;2022-12-11T07:36:58;100999.72;;;0.47;100.00
15794;BME280;7999;51.208;4.244;2022-12-11T07:39:25;100995.28;;;0.43;100.00
15794;BME280;7999;51.208;4.244;2022-12-11T07:41:51;101001.75;;;0.35;100.00
15794;BME280;7999;51.208;4.244;2022-12-11T07:44:18;100998.53;;;0.39;100.00
15794;BME280;7999;51.208;4.244;2022-12-11T07:46:45;100993.78;;;0.48;100.00
15794;BME280;7999;51.208;4.244;2022-12-11T07:49:12;101000.72;;;0.50;100.00
15794;BME280;7999;51.208;4.244;2022-12-11T07:51:41;101001.09;;;0.39;100.00
15794;BME280;7999;51.208;4.244;2022-12-11T07:54:09;100997.97;;;0.46;100.00
15794;BME280;7999;51.208;4.244;2022-12-11T07:56:39;100997.56;;;0.56;100.00
15794;BME280;7999;51.208;4.244;2022-12-11T07:59:09;100992.03;;;0.47;100.00
15794;BME280;7999;51.208;4.244;2022-12-11T08:01:36;100997.16;;;0.47;100.00
15794;BME280;7999;51.208;4.244;2022-12-11T08:04:04;100993.66;;;0.45;100.00
15794;BME280;7999;51.208;4.244;2022-12-11T08:06:32;100994.59;;;0.47;100.00
15794;BME280;7999;51.208;4.244;2022-12-11T08:09:00;100995.53;;;0.49;100.00
15794;BME280;7999;51.208;4.244;2022-12-11T08:11:29;101000.13;;;0.56;100.00
15794;BME280;7999;51.208;4.244;2022-12-11T08:13:58;101002.94;;;0.62;100.00
15794;BME280;7999;51.208;4.244;2022-12-11T08:16:25;101003.16;;;0.47;100.00
15794;BME280;7999;51.208;4.244;2022-12-11T08:18:52;101002.41;;;0.50;100.00
15794;BME280;7999;51.208;4.244;2022-12-11T08:21:19;101011.06;;;0.53;100.00
15794;BME280;7999;51.208;4.244;2022-12-11T08:23:47;101012.75;;;0.53;100.00
15794;BME280;7999;51.208;4.244;2022-12-11T08:26:16;101007.81;;;0.56;100.00
15794;BME280;7999;51.208;4.244;2022-12-11T08:28:44;101005.25;;;0.56;100.00
15794;BME280;7999;51.208;4.244;2022-12-11T08:31:12;101001.44;;;0.67;100.00
15794;BME280;7999;51.208;4.244;2022-12-11T08:33:39;101005.09;;;0.53;100.00
15794;BME280;7999;51.208;4.244;2022-12-11T08:36:07;101002.41;;;0.50;100.00
15794;BME280;7999;51.208;4.244;2022-12-11T08:38:35;101005.78;;;0.49;100.00
15794;BME280;7999;51.208;4.244;2022-12-11T08:41:06;101007.31;;;0.45;100.00
15794;BME280;7999;51.208;4.244;2022-12-11T08:43:35;101009.69;;;0.60;100.00
15794;BME280;7999;51.208;4.244;2022-12-11T08:46:02;100997.31;;;0.71;100.00
15794;BME280;7999;51.208;4.244;2022-12-11T08:48:29;101004.28;;;0.54;100.00
15794;BME280;7999;51.208;4.244;2022-12-11T08:50:57;100989.75;;;0.53;100.00
15794;BME280;7999;51.208;4.244;2022-12-11T08:53:24;100996.19;;;0.64;100.00
15794;BME280;7999;51.208;4.244;2022-12-11T08:55:51;101000.56;;;0.67;100.00
15794;BME280;7999;51.208;4.244;2022-12-11T08:58:18;100997.94;;;0.65;100.00
15794;BME280;7999;51.208;4.244;2022-12-11T09:00:46;100995.56;;;0.70;100.00
15794;BME280;7999;51.208;4.244;2022-12-11T09:03:14;101002.13;;;0.63;100.00
15794;BME280;7999;51.208;4.244;2022-12-11T09:05:41;101002.81;;;0.59;100.00
15794;BME280;7999;51.208;4.244;2022-12-11T09:08:08;100997.19;;;0.68;100.00
15794;BME280;7999;51.208;4.244;2022-12-11T09:10:35;101003.31;;;0.71;100.00
15794;BME280;7999;51.208;4.244;2022-12-11T09:13:02;101000.13;;;0.56;100.00
15794;BME280;7999;51.208;4.244;2022-12-11T09:15:29;101002.41;;;0.50;100.00
15794;BME280;7999;51.208;4.244;2022-12-11T09:17:58;101003.91;;;0.45;100.00
15794;BME280;7999;51.208;4.244;2022-12-11T09:20:24;100999.16;;;0.54;100.00
15794;BME280;7999;51.208;4.244;2022-12-11T09:22:51;100996.16;;;0.43;100.00
15794;BME280;7999;51.208;4.244;2022-12-11T09:25:17;101002.03;;;0.41;100.00
15794;BME280;7999;51.208;4.244;2022-12-11T09:27:44;100998.78;;;0.45;100.00
15794;BME280;7999;51.208;4.244;2022-12-11T09:30:11;100993.78;;;0.48;100.00
15794;BME280;7999;51.208;4.244;2022-12-11T09:32:38;100996.47;;;0.51;100.00
15794;BME280;7999;51.208;4.244;2022-12-11T09:35:07;100996.31;;;0.67;100.00
15794;BME280;7999;51.208;4.244;2022-12-11T09:37:35;101004.44;;;0.57;100.00
15794;BME280;7999;51.208;4.244;2022-12-11T09:40:02;100999.78;;;0.48;100.00
15794;BME280;7999;51.208;4.244;2022-12-11T09:42:31;101001.06;;;0.58;100.00
15794;BME280;7999;51.208;4.244;2022-12-11T09:45:02;101001.22;;;0.42;100.00
15794;BME280;7999;51.208;4.244;2022-12-11T09:47:32;101003.63;;;0.39;100.00
15794;BME280;7999;51.208;4.244;2022-12-11T09:50:02;101007.56;;;0.30;100.00
15794;BME280;7999;51.208;4.244;2022-12-11T09:52:33;101005.66;;;0.26;100.00
15794;BME280;7999;51.208;4.244;2022-12-11T09:55:03;101008.69;;;0.37;100.00
15794;BME280;7999;51.208;4.244;2022-12-11T09:57:38;100996.38;;;0.28;100.00
15794;BME280;7999;51.208;4.244;2022-12-11T10:00:13;100992.72;;;0.23;100.00
15794;BME280;7999;51.208;4.244;2022-12-11T10:02:48;100995.47;;;0.47;100.00
15794;BME280;7999;51.208;4.244;2022-12-11T10:05:21;100992.66;;;0.41;100.00
15794;BME280;7999;51.208;4.244;2022-12-11T10:07:57;100991.66;;;0.38;100.00
15794;BME280;7999;51.208;4.244;2022-12-11T10:10:28;100998.59;;;0.40;100.00
15794;BME280;7999;51.208;4.244;2022-12-11T10:13:01;100992.09;;;0.27;100.00
15794;BME280;7999;51.208;4.244;2022-12-11T10:15:34;100989.78;;;0.34;100.00
15794;BME280;7999;51.208;4.244;2022-12-11T10:18:03;100993.84;;;0.28;100.00
15794;BME280;7999;51.208;4.244;2022-12-11T10:20:32;100994.47;;;0.24;100.00
15794;BME280;7999;51.208;4.244;2022-12-11T10:23:02;100983.00;;;0.15;100.00
15794;BME280;7999;51.208;4.244;2022-12-11T10:25:33;100996.66;;;0.15;100.00
15794;BME280;7999;51.208;4.244;2022-12-11T10:28:07;100984.13;;;0.21;100.00
15794;BME280;7999;51.208;4.244;2022-12-11T10:30:36;100985.88;;;0.22;100.00
15794;BME280;7999;51.208;4.244;2022-12-11T10:33:05;100980.94;;;0.27;100.00
15794;BME280;7999;51.208;4.244;2022-12-11T10:35:38;100984.06;;;0.39;100.00
15794;BME280;7999;51.208;4.244;2022-12-11T10:38:12;100977.81;;;0.33;100.00
15794;BME280;7999;51.208;4.244;2022-12-11T10:40:41;100968.66;;;0.38;100.00
15794;BME280;7999;51.208;4.244;2022-12-11T10:43:09;100973.00;;;0.40;100.00
15794;BME280;7999;51.208;4.244;2022-12-11T10:45:35;100965.47;;;0.43;100.00
15794;BME280;7999;51.208;4.244;2022-12-11T10:48:03;100965.22;;;0.37;100.00
15794;BME280;7999;51.208;4.244;2022-12-11T10:50:30;100956.38;;;0.50;100.00
15794;BME280;7999;51.208;4.244;2022-12-11T10:52:57;100956.97;;;0.44;100.00
15794;BME280;7999;51.208;4.244;2022-12-11T10:55:27;100954.50;;;0.46;100.00
15794;BME280;7999;51.208;4.244;2022-12-11T10:57:55;100959.72;;;0.49;100.00
15794;BME280;7999;51.208;4.244;2022-12-11T11:00:30;100960.72;;;0.52;100.00
15794;BME280;7999;51.208;4.244;2022-12-11T11:02:57;100960.88;;;0.55;100.00
15794;BME280;7999;51.208;4.244;2022-12-11T11:05:27;100960.13;;;0.58;100.00
15794;BME280;7999;51.208;4.244;2022-12-11T11:08:01;100959.25;;;0.57;100.00
15794;BME280;7999;51.208;4.244;2022-12-11T11:10:29;100954.16;;;0.57;100.00
15794;BME280;7999;51.208;4.244;2022-12-11T11:12:59;100960.38;;;0.64;100.00
15794;BME280;7999;51.208;4.244;2022-12-11T11:15:27;100955.44;;;0.69;100.00
15794;BME280;7999;51.208;4.244;2022-12-11T11:17:54;100950.16;;;0.64;100.00
15794;BME280;7999;51.208;4.244;2022-12-11T11:20:23;100950.53;;;0.73;100.00
15794;BME280;7999;51.208;4.244;2022-12-11T11:22:50;100945.66;;;0.79;100.00
15794;BME280;7999;51.208;4.244;2022-12-11T11:25:18;100942.97;;;0.76;100.00
15794;BME280;7999;51.208;4.244;2022-12-11T11:27:49;100948.03;;;0.75;100.00
15794;BME280;7999;51.208;4.244;2022-12-11T11:30:18;100944.16;;;0.84;100.00
15794;BME280;7999;51.208;4.244;2022-12-11T11:32:45;100938.91;;;0.81;100.00
15794;BME280;7999;51.208;4.244;2022-12-11T11:35:19;100945.59;;;0.78;100.00
15794;BME280;7999;51.208;4.244;2022-12-11T11:37:52;100938.53;;;0.72;100.00
15794;BME280;7999;51.208;4.244;2022-12-11T11:40:21;100940.00;;;0.86;100.00
15794;BME280;7999;51.208;4.244;2022-12-11T11:42:55;100934.59;;;0.80;100.00
15794;BME280;7999;51.208;4.244;2022-12-11T11:45:27;100932.31;;;0.86;100.00
15794;BME280;7999;51.208;4.244;2022-12-11T11:47:57;100938.34;;;0.88;100.00
15794;BME280;7999;51.208;4.244;2022-12-11T11:50:26;100939.13;;;0.86;100.00
15794;BME280;7999;51.208;4.244;2022-12-11T11:52:59;100946.63;;;1.04;100.00
15794;BME280;7999;51.208;4.244;2022-12-11T11:55:31;100938.84;;;0.80;100.00
15794;BME280;7999;51.208;4.244;2022-12-11T11:58:05;100943.91;;;0.78;100.00
15794;BME280;7999;51.208;4.244;2022-12-11T12:00:33;100940.91;;;0.88;100.00
15794;BME280;7999;51.208;4.244;2022-12-11T12:03:00;100935.81;;;0.88;100.00
15794;BME280;7999;51.208;4.244;2022-12-11T12:05:31;100931.72;;;0.93;100.00
15794;BME280;7999;51.208;4.244;2022-12-11T12:08:04;100931.03;;;0.98;100.00
15794;BME280;7999;51.208;4.244;2022-12-11T12:10:37;100920.44;;;0.88;100.00
15794;BME280;7999;51.208;4.244;2022-12-11T12:13:09;100920.31;;;0.85;100.00
15794;BME280;7999;51.208;4.244;2022-12-11T12:15:41;100919.06;;;0.97;100.00
15794;BME280;7999;51.208;4.244;2022-12-11T12:18:10;100915.28;;;1.09;100.00
15794;BME280;7999;51.208;4.244;2022-12-11T12:20:41;100919.53;;;1.09;100.00
15794;BME280;7999;51.208;4.244;2022-12-11T12:23:13;100919.28;;;1.03;100.00
15794;BME280;7999;51.208;4.244;2022-12-11T12:25:47;100915.69;;;0.98;100.00
15794;BME280;7999;51.208;4.244;2022-12-11T12:28:19;100912.88;;;0.91;100.00
15794;BME280;7999;51.208;4.244;2022-12-11T12:30:52;100910.72;;;1.02;100.00
15794;BME280;7999;51.208;4.244;2022-12-11T12:33:24;100911.28;;;1.16;100.00
15794;BME280;7999;51.208;4.244;2022-12-11T12:35:59;100918.81;;;0.90;100.00
15794;BME280;7999;51.208;4.244;2022-12-11T12:38:30;100916.66;;;1.01;100.00
15794;BME280;7999;51.208;4.244;2022-12-11T12:41:00;100912.41;;;1.02;100.00
15794;BME280;7999;51.208;4.244;2022-12-11T12:43:35;100910.66;;;1.21;100.00
15794;BME280;7999;51.208;4.244;2022-12-11T12:46:08;100910.25;;;1.11;100.00
15794;BME280;7999;51.208;4.244;2022-12-11T12:48:37;100899.97;;;0.88;100.00
15794;BME280;7999;51.208;4.244;2022-12-11T12:51:04;100900.66;;;1.07;100.00
15794;BME280;7999;51.208;4.244;2022-12-11T12:53:33;100902.25;;;1.26;100.00
15794;BME280;7999;51.208;4.244;2022-12-11T12:56:01;100902.78;;;1.17;100.00
15794;BME280;7999;51.208;4.244;2022-12-11T12:58:29;100898.00;;;1.26;100.00
15794;BME280;7999;51.208;4.244;2022-12-11T13:01:06;100902.97;;;1.21;100.00
15794;BME280;7999;51.208;4.244;2022-12-11T13:03:34;100891.84;;;1.21;100.00
15794;BME280;7999;51.208;4.244;2022-12-11T13:06:02;100894.63;;;1.27;100.00
15794;BME280;7999;51.208;4.244;2022-12-11T13:08:39;100890.72;;;1.37;100.00